createdAt,value
2023-04-16T00:00:07.098Z,13.02
2023-04-16T00:02:42.977Z,11.38
2023-04-16T00:05:12.769Z,12.57
2023-04-16T00:07:45.012Z,14.20
2023-04-16T00:10:14.708Z,12.98
2023-04-16T00:12:44.343Z,12.60
2023-04-16T00:15:14.288Z,13.52
2023-04-16T00:17:44.019Z,14.95
2023-04-16T00:20:13.834Z,14.55
2023-04-16T00:22:46.084Z,16.73
2023-04-16T00:25:16.200Z,18.20
2023-04-16T00:27:45.892Z,17.42
2023-04-16T00:30:16.302Z,17.27
2023-04-16T00:32:46.383Z,17.92
2023-04-16T00:35:16.276Z,18.77
2023-04-16T00:37:48.638Z,19.17
2023-04-16T00:40:18.418Z,20.83
2023-04-16T00:42:48.510Z,19.27
2023-04-16T00:45:18.253Z,19.80
2023-04-16T00:47:48.272Z,21.02
2023-04-16T00:50:18.047Z,21.40
2023-04-16T00:52:51.875Z,20.77
2023-04-16T00:55:22.715Z,21.38
2023-04-16T00:57:52.374Z,21.02
2023-04-16T01:00:23.726Z,21.67
2023-04-16T01:02:53.599Z,21.00
2023-04-16T01:05:23.794Z,21.50
2023-04-16T01:07:56.492Z,21.58
2023-04-16T01:10:26.211Z,23.70
2023-04-16T01:12:56.055Z,21.30
2023-04-16T01:15:25.849Z,24.95
2023-04-16T01:17:55.646Z,22.90
2023-04-16T01:20:25.784Z,22.23
2023-04-16T01:22:58.234Z,21.77
2023-04-16T01:25:28.048Z,21.33
2023-04-16T01:27:59.340Z,22.73
2023-04-16T01:30:29.647Z,21.73
2023-04-16T01:33:21.702Z,22.83
2023-04-16T01:35:51.461Z,23.35
2023-04-16T01:38:23.741Z,22.30
2023-04-16T01:40:53.407Z,21.25
2023-04-16T01:43:23.046Z,22.38
2023-04-16T01:45:52.767Z,21.83
2023-04-16T01:48:22.411Z,22.10
2023-04-16T01:50:52.127Z,21.40
2023-04-16T01:53:24.327Z,21.42
2023-04-16T01:55:54.107Z,21.77
2023-04-16T01:58:23.776Z,21.30
2023-04-16T02:00:53.556Z,21.55
2023-04-16T02:03:24.965Z,20.67
2023-04-16T02:05:55.776Z,20.70
2023-04-16T02:08:28.252Z,24.52
2023-04-16T02:10:59.307Z,21.77
2023-04-16T02:13:29.790Z,22.10
2023-04-16T02:15:59.547Z,21.67
2023-04-16T02:19:04.910Z,23.08
2023-04-16T02:21:37.825Z,23.45
2023-04-16T02:24:11.363Z,23.40
2023-04-16T02:26:41.135Z,23.90
2023-04-16T02:29:17.433Z,24.60
2023-04-16T02:31:53.581Z,23.23
2023-04-16T02:34:23.841Z,22.17
2023-04-16T02:36:54.440Z,24.58
2023-04-16T02:39:27.330Z,22.52
2023-04-16T02:41:58.089Z,25.00
2023-04-16T02:44:27.862Z,22.92
2023-04-16T02:46:57.519Z,21.65
2023-04-16T02:49:27.151Z,24.50
2023-04-16T02:51:56.810Z,29.13
2023-04-16T02:54:29.201Z,29.13
2023-04-16T02:56:58.896Z,25.45
2023-04-16T02:59:28.640Z,27.13
2023-04-16T03:01:58.399Z,25.33
2023-04-16T03:04:28.154Z,27.67
2023-04-16T03:06:57.826Z,25.15
2023-04-16T03:09:30.082Z,26.90
2023-04-16T03:11:59.750Z,28.98
2023-04-16T03:14:29.394Z,29.38
2023-04-16T03:16:59.048Z,27.58
2023-04-16T03:19:28.888Z,28.75
2023-04-16T03:21:58.677Z,31.08
2023-04-16T03:24:30.990Z,27.58
2023-04-16T03:27:02.697Z,28.20
2023-04-16T03:29:32.536Z,29.23
2023-04-16T03:32:02.245Z,26.30
2023-04-16T03:34:32.039Z,27.00
2023-04-16T03:37:01.741Z,27.73
2023-04-16T03:39:33.954Z,27.80
2023-04-16T03:42:03.701Z,28.25
2023-04-16T03:44:33.385Z,27.35
2023-04-16T03:47:04.362Z,26.00
2023-04-16T03:49:34.073Z,25.38
2023-04-16T03:52:03.845Z,31.20
2023-04-16T03:54:36.179Z,28.15
2023-04-16T03:57:17.918Z,30.17
2023-04-16T03:59:48.294Z,27.98
2023-04-16T04:02:20.092Z,28.90
2023-04-16T04:04:50.487Z,29.58
2023-04-16T04:07:20.943Z,29.25
2023-04-16T04:09:53.194Z,31.27
2023-04-16T04:12:23.491Z,30.83
2023-04-16T04:14:53.301Z,29.48
2023-04-16T04:17:23.651Z,31.10
2023-04-16T04:20:01.391Z,32.67
2023-04-16T04:22:33.595Z,27.80
2023-04-16T04:25:05.969Z,28.48
2023-04-16T04:27:36.099Z,29.20
2023-04-16T04:30:06.562Z,28.65
2023-04-16T04:32:36.908Z,28.40
2023-04-16T04:35:06.968Z,27.50
2023-04-16T04:37:36.767Z,29.55
2023-04-16T04:40:17.648Z,29.45
2023-04-16T04:42:48.253Z,27.35
2023-04-16T04:45:18.571Z,27.95
2023-04-16T04:47:48.329Z,26.55
2023-04-16T04:50:18.745Z,30.15
2023-04-16T04:52:48.422Z,29.70
2023-04-16T04:55:20.998Z,29.33
2023-04-16T04:57:51.687Z,27.88
2023-04-16T05:00:22.366Z,28.00
2023-04-16T05:02:57.453Z,19.80
2023-04-16T05:05:27.232Z,27.85
2023-04-16T05:07:56.945Z,27.88
2023-04-16T05:10:29.499Z,25.88
2023-04-16T05:12:59.198Z,27.55
2023-04-16T05:15:28.956Z,24.63
2023-04-16T05:17:58.826Z,26.42
2023-04-16T05:20:28.541Z,24.20
2023-04-16T05:22:58.214Z,24.55
2023-04-16T05:25:30.469Z,25.63
2023-04-16T05:28:00.132Z,25.10
2023-04-16T05:30:29.815Z,24.33
2023-04-16T05:32:59.515Z,24.65
2023-04-16T05:35:29.234Z,23.73
2023-04-16T05:37:58.888Z,23.45
2023-04-16T05:40:31.169Z,24.63
2023-04-16T05:43:00.819Z,25.17
2023-04-16T05:45:31.413Z,23.42
2023-04-16T05:48:01.077Z,22.63
2023-04-16T05:50:30.770Z,20.02
2023-04-16T05:53:00.456Z,19.67
2023-04-16T05:55:32.689Z,21.42
2023-04-16T05:58:04.467Z,20.40
2023-04-16T06:00:34.321Z,19.63
2023-04-16T06:03:05.098Z,20.02
2023-04-16T06:05:35.007Z,19.88
2023-04-16T06:08:04.726Z,19.77
2023-04-16T06:10:37.000Z,18.42
2023-04-16T06:13:06.655Z,17.08
2023-04-16T06:15:36.295Z,17.25
2023-04-16T06:18:06.232Z,16.83
2023-04-16T06:20:36.473Z,16.27
2023-04-16T06:23:06.131Z,16.77
2023-04-16T06:25:38.451Z,17.02
2023-04-16T06:28:08.610Z,17.73
2023-04-16T06:30:38.338Z,16.70
2023-04-16T06:33:08.298Z,17.73
2023-04-16T06:35:38.008Z,16.42
2023-04-16T06:38:07.717Z,16.05
2023-04-16T06:40:40.147Z,15.70
2023-04-16T06:43:09.999Z,16.67
2023-04-16T06:45:39.711Z,15.48
2023-04-16T06:48:09.650Z,17.95
2023-04-16T06:50:39.299Z,17.65
2023-04-16T06:53:09.041Z,15.27
2023-04-16T06:55:41.243Z,15.90
2023-04-16T06:58:10.907Z,15.25
2023-04-16T07:00:40.696Z,14.60
2023-04-16T07:03:10.629Z,14.32
2023-04-16T07:05:40.570Z,15.18
2023-04-16T07:08:10.727Z,14.18
2023-04-16T07:10:43.377Z,15.32
2023-04-16T07:13:13.427Z,14.48
2023-04-16T07:15:43.083Z,15.70
2023-04-16T07:18:12.813Z,15.55
2023-04-16T07:20:42.568Z,14.48
2023-04-16T07:23:12.307Z,15.70
2023-04-16T07:25:44.721Z,14.57
2023-04-16T07:28:16.850Z,13.75
2023-04-16T07:30:46.704Z,13.60
2023-04-16T07:33:16.355Z,12.88
2023-04-16T07:35:46.000Z,14.25
2023-04-16T07:38:16.516Z,13.63
2023-04-16T07:40:48.842Z,15.40
2023-04-16T07:43:18.678Z,13.48
2023-04-16T07:45:48.578Z,12.05
2023-04-16T07:48:18.345Z,13.43
2023-04-16T07:50:48.013Z,13.30
2023-04-16T07:53:17.642Z,13.15
2023-04-16T07:55:49.917Z,12.98
2023-04-16T07:58:19.591Z,11.98
2023-04-16T08:00:50.856Z,12.65
2023-04-16T08:03:20.996Z,12.13
2023-04-16T08:05:50.897Z,11.25
2023-04-16T08:08:20.545Z,12.57
2023-04-16T08:10:55.965Z,10.98
2023-04-16T08:13:25.778Z,11.10
2023-04-16T08:15:55.427Z,11.27
2023-04-16T08:18:25.399Z,12.73
2023-04-16T08:20:55.114Z,11.90
2023-04-16T08:23:24.822Z,11.65
2023-04-16T08:25:57.460Z,11.82
2023-04-16T08:28:27.236Z,12.40
2023-04-16T08:30:57.005Z,11.00
2023-04-16T08:33:26.954Z,12.65
2023-04-16T08:35:56.677Z,13.05
2023-04-16T08:38:26.565Z,13.45
2023-04-16T08:41:01.516Z,12.32
2023-04-16T08:43:36.576Z,12.43
2023-04-16T08:46:08.205Z,12.97
2023-04-16T08:48:38.285Z,12.85
2023-04-16T08:51:12.627Z,11.88
2023-04-16T08:53:51.439Z,13.00
2023-04-16T08:56:25.984Z,13.15
2023-04-16T08:58:58.550Z,14.82
2023-04-16T09:01:29.462Z,15.45
2023-04-16T09:03:59.693Z,16.60
2023-04-16T09:06:31.586Z,17.17
2023-04-16T09:09:04.898Z,15.95
2023-04-16T09:11:37.713Z,15.57
2023-04-16T09:14:07.803Z,15.05
2023-04-16T09:16:38.374Z,16.27
2023-04-16T09:19:08.395Z,14.50
2023-04-16T09:21:39.212Z,14.40
2023-04-16T09:24:10.873Z,14.85
2023-04-16T09:26:44.340Z,15.60
2023-04-16T09:29:14.693Z,17.65
2023-04-16T09:31:44.560Z,15.43
2023-04-16T09:34:14.214Z,16.27
2023-04-16T09:36:43.945Z,15.45
2023-04-16T09:39:22.186Z,15.77
2023-04-16T09:41:56.392Z,15.82
2023-04-16T09:44:38.532Z,15.60
2023-04-16T09:47:10.586Z,16.10
2023-04-16T09:49:44.886Z,16.08
2023-04-16T09:52:16.791Z,17.85
2023-04-16T09:54:50.665Z,17.67
2023-04-16T09:57:27.902Z,14.48
2023-04-16T10:00:03.779Z,16.45
2023-04-16T10:02:34.946Z,14.68
2023-04-16T10:05:05.832Z,15.20
2023-04-16T10:07:38.350Z,14.45
2023-04-16T10:10:09.459Z,14.40
2023-04-16T10:12:41.915Z,15.25
2023-04-16T10:15:12.403Z,13.85
2023-04-16T10:17:42.250Z,13.32
2023-04-16T10:20:12.866Z,13.10
2023-04-16T10:22:42.601Z,11.70
2023-04-16T10:25:13.240Z,12.35
2023-04-16T10:27:46.934Z,12.15
2023-04-16T10:30:19.665Z,11.98
2023-04-16T10:32:49.794Z,11.50
2023-04-16T10:35:22.705Z,11.48
2023-04-16T10:37:52.353Z,9.43
2023-04-16T10:40:26.660Z,9.80
2023-04-16T10:43:02.889Z,10.40
2023-04-16T10:45:40.924Z,10.63
2023-04-16T10:48:12.031Z,10.32
2023-04-16T10:50:41.855Z,11.57
2023-04-16T10:53:22.095Z,11.82
2023-04-16T10:56:15.604Z,13.05
2023-04-16T10:58:47.822Z,12.57
2023-04-16T11:01:17.637Z,12.27
2023-04-16T11:03:50.433Z,11.98
2023-04-16T11:06:27.167Z,11.05
2023-04-16T11:08:57.372Z,11.30
2023-04-16T11:11:27.042Z,11.80
2023-04-16T11:14:00.482Z,12.32
2023-04-16T11:16:30.192Z,12.15
2023-04-16T11:19:00.229Z,11.95
2023-04-16T11:21:30.066Z,13.00
2023-04-16T11:24:00.724Z,12.80
2023-04-16T11:26:31.814Z,12.40
2023-04-16T11:29:05.023Z,13.30
2023-04-16T11:31:35.019Z,13.75
2023-04-16T11:34:05.017Z,13.02
2023-04-16T11:36:46.243Z,15.65
2023-04-16T11:39:16.191Z,14.95
2023-04-16T11:41:46.610Z,13.60
2023-04-16T11:44:28.140Z,14.02
2023-04-16T11:46:58.140Z,12.70
2023-04-16T11:49:30.963Z,12.65
2023-04-16T11:52:01.258Z,12.27
2023-04-16T11:54:34.920Z,13.38
2023-04-16T11:57:04.685Z,13.07
2023-04-16T11:59:37.307Z,12.38
2023-04-16T12:02:38.392Z,13.18
2023-04-16T12:05:10.315Z,13.30
2023-04-16T12:07:49.085Z,13.68
2023-04-16T12:10:18.747Z,14.50
2023-04-16T12:12:48.568Z,15.63
2023-04-16T12:15:21.135Z,14.65
2023-04-16T12:17:54.616Z,16.67
2023-04-16T12:20:24.521Z,15.95
2023-04-16T12:22:57.215Z,14.20
2023-04-16T12:25:27.555Z,14.20
2023-04-16T12:27:58.717Z,14.48
2023-04-16T12:30:31.482Z,14.43
2023-04-16T12:33:17.583Z,15.80
2023-04-16T12:35:47.824Z,15.35
2023-04-16T12:38:17.540Z,14.52
2023-04-16T12:40:47.246Z,14.70
2023-04-16T12:43:17.056Z,15.82
2023-04-16T12:45:49.599Z,18.00
2023-04-16T12:48:19.369Z,16.63
2023-04-16T12:50:49.088Z,15.50
2023-04-16T12:53:18.770Z,15.93
2023-04-16T12:55:48.470Z,15.63
2023-04-16T12:58:18.141Z,15.80
2023-04-16T13:00:50.733Z,14.38
2023-04-16T13:03:21.293Z,15.38
2023-04-16T13:05:51.496Z,14.57
2023-04-16T13:08:21.143Z,15.65
2023-04-16T13:10:51.108Z,15.00
2023-04-16T13:13:20.785Z,16.17
2023-04-16T13:15:53.084Z,17.02
2023-04-16T13:18:23.207Z,17.85
2023-04-16T13:20:52.909Z,18.10
2023-04-16T13:23:22.803Z,16.98
2023-04-16T13:25:52.490Z,19.42
2023-04-16T13:28:22.341Z,18.88
2023-04-16T13:30:55.106Z,19.65
2023-04-16T13:33:25.046Z,19.05
2023-04-16T13:35:54.871Z,19.35
2023-04-16T13:38:24.682Z,20.27
2023-04-16T13:40:54.348Z,18.15
2023-04-16T13:43:24.345Z,18.23
2023-04-16T13:45:56.604Z,17.67
2023-04-16T13:48:26.326Z,19.10
2023-04-16T13:50:56.196Z,18.85
2023-04-16T13:53:25.893Z,17.83
2023-04-16T13:55:55.620Z,18.77
2023-04-16T13:58:25.432Z,19.13
2023-04-16T14:00:57.840Z,18.63
2023-04-16T14:03:28.356Z,18.60
2023-04-16T14:05:58.230Z,18.27
2023-04-16T14:08:27.969Z,18.65
2023-04-16T14:10:58.526Z,17.25
2023-04-16T14:13:28.492Z,17.10
2023-04-16T14:16:00.872Z,17.58
2023-04-16T14:18:30.582Z,16.67
2023-04-16T14:21:02.276Z,17.83
2023-04-16T14:23:31.965Z,18.30
2023-04-16T14:26:01.812Z,17.55
2023-04-16T14:28:31.785Z,17.65
2023-04-16T14:31:04.115Z,19.00
2023-04-16T14:33:33.886Z,18.30
2023-04-16T14:36:03.732Z,18.17
2023-04-16T14:38:33.670Z,16.33
2023-04-16T14:41:03.351Z,16.83
2023-04-16T14:43:33.097Z,18.90
2023-04-16T14:46:06.651Z,28.95
2023-04-16T14:48:36.553Z,22.85
2023-04-16T14:51:07.354Z,33.42
2023-04-16T14:53:37.244Z,20.25
2023-04-16T14:56:07.940Z,19.25
2023-04-16T14:58:39.435Z,17.58
2023-04-16T15:01:13.809Z,18.30
2023-04-16T15:03:44.306Z,17.63
2023-04-16T15:06:14.724Z,18.98
2023-04-16T15:08:44.462Z,17.50
2023-04-16T15:11:14.126Z,17.88
2023-04-16T15:13:43.812Z,16.80
2023-04-16T15:16:16.139Z,18.67
2023-04-16T15:18:45.981Z,19.52
2023-04-16T15:21:15.773Z,19.08
2023-04-16T15:23:45.672Z,20.15
2023-04-16T15:26:15.548Z,25.67
2023-04-16T15:28:45.240Z,24.13
2023-04-16T15:31:17.580Z,24.75
2023-04-16T15:33:47.380Z,25.60
2023-04-16T15:36:17.137Z,25.58
2023-04-16T15:38:46.756Z,28.90
2023-04-16T15:41:16.491Z,30.55
2023-04-16T15:43:46.441Z,31.88
2023-04-16T15:46:18.909Z,31.90
2023-04-16T15:48:48.605Z,31.20
2023-04-16T15:51:18.580Z,33.50
2023-04-16T15:53:49.630Z,32.90
2023-04-16T15:56:19.798Z,30.17
2023-04-16T15:58:49.435Z,32.42
2023-04-16T16:01:22.581Z,32.80
2023-04-16T16:03:52.579Z,32.53
2023-04-16T16:06:22.790Z,30.63
2023-04-16T16:08:52.628Z,30.83
2023-04-16T16:11:22.414Z,31.63
2023-04-16T16:13:52.142Z,31.38
2023-04-16T16:16:24.589Z,29.90
2023-04-16T16:18:54.283Z,32.65
2023-04-16T16:21:24.151Z,32.45
2023-04-16T16:23:53.829Z,42.55
2023-04-16T16:26:23.534Z,32.22
2023-04-16T16:28:53.434Z,32.35
2023-04-16T16:31:28.477Z,30.92
2023-04-16T16:33:58.262Z,30.58
2023-04-16T16:36:28.223Z,31.38
2023-04-16T16:38:58.139Z,29.85
2023-04-16T16:41:27.904Z,30.02
2023-04-16T16:43:58.956Z,31.20
2023-04-16T16:46:31.247Z,30.23
2023-04-16T16:49:01.110Z,30.60
2023-04-16T16:51:31.197Z,29.83
2023-04-16T16:54:00.847Z,31.08
2023-04-16T16:56:30.812Z,28.48
2023-04-16T16:59:00.523Z,28.70
2023-04-16T17:01:33.174Z,28.08
2023-04-16T17:04:03.057Z,28.15
2023-04-16T17:06:33.570Z,28.52
2023-04-16T17:09:03.353Z,28.17
2023-04-16T17:11:33.077Z,27.95
2023-04-16T17:14:02.814Z,27.60
2023-04-16T17:16:35.145Z,28.85
2023-04-16T17:19:05.056Z,28.90
2023-04-16T17:21:35.296Z,27.27
2023-04-16T17:24:04.956Z,28.42
2023-04-16T17:26:34.838Z,26.13
2023-04-16T17:29:04.712Z,26.38
2023-04-16T17:31:36.996Z,26.05
2023-04-16T17:34:06.832Z,27.30
2023-04-16T17:36:37.028Z,26.95
2023-04-16T17:39:06.710Z,24.48
2023-04-16T17:41:36.360Z,29.58
2023-04-16T17:44:06.205Z,32.42
2023-04-16T17:46:38.513Z,23.73
2023-04-16T17:49:08.538Z,23.23
2023-04-16T17:51:38.207Z,27.70
2023-04-16T17:54:08.066Z,23.55
2023-04-16T17:56:38.117Z,23.88
2023-04-16T17:59:08.016Z,25.13
2023-04-16T18:01:41.073Z,24.42
2023-04-16T18:04:11.110Z,17.95
2023-04-16T18:06:41.177Z,18.63
2023-04-16T18:09:10.820Z,17.92
2023-04-16T18:11:40.541Z,15.23
2023-04-16T18:14:11.775Z,14.63
2023-04-16T18:16:44.627Z,14.38
2023-04-16T18:19:14.528Z,13.10
2023-04-16T18:21:44.292Z,12.73
2023-04-16T18:24:15.307Z,11.52
2023-04-16T18:26:47.071Z,17.88
2023-04-16T18:29:18.098Z,10.38
2023-04-16T18:31:50.727Z,11.23
2023-04-16T18:34:20.878Z,10.38
2023-04-16T18:36:51.372Z,9.80
2023-04-16T18:39:21.174Z,9.07
2023-04-16T18:41:51.032Z,9.27
2023-04-16T18:44:20.911Z,11.88
2023-04-16T18:46:53.201Z,11.30
2023-04-16T18:49:23.036Z,10.57
2023-04-16T18:51:55.869Z,11.90
2023-04-16T18:54:25.930Z,12.73
2023-04-16T18:56:57.330Z,12.40
2023-04-16T18:59:28.027Z,13.20
2023-04-16T19:02:00.306Z,12.60
2023-04-16T19:04:29.995Z,12.00
2023-04-16T19:06:59.758Z,13.57
2023-04-16T19:09:29.417Z,13.07
2023-04-16T19:11:59.049Z,13.23
2023-04-16T19:14:28.669Z,13.57
2023-04-16T19:17:01.002Z,14.77
2023-04-16T19:19:30.764Z,14.52
2023-04-16T19:22:00.527Z,16.50
2023-04-16T19:24:30.894Z,17.83
2023-04-16T19:27:02.786Z,15.65
2023-04-16T19:29:35.774Z,17.55
2023-04-16T19:32:08.432Z,15.23
2023-04-16T19:34:38.169Z,17.60
2023-04-16T19:37:07.862Z,14.68
2023-04-16T19:39:37.572Z,13.10
2023-04-16T19:42:07.355Z,13.68
2023-04-16T19:44:37.153Z,15.68
2023-04-16T19:47:09.684Z,15.38
2023-04-16T19:49:39.435Z,13.48
2023-04-16T19:52:09.135Z,15.00
2023-04-16T19:54:38.806Z,14.13
2023-04-16T19:57:08.524Z,14.13
2023-04-16T19:59:38.440Z,13.48
2023-04-16T20:02:10.878Z,14.38
2023-04-16T20:04:40.551Z,12.65
2023-04-16T20:07:10.248Z,12.23
2023-04-16T20:09:39.896Z,12.55
2023-04-16T20:12:09.914Z,17.08
2023-04-16T20:14:39.638Z,15.20
2023-04-16T20:17:12.034Z,16.50
2023-04-16T20:19:41.796Z,12.98
2023-04-16T20:22:11.502Z,13.10
2023-04-16T20:24:41.712Z,11.63
2023-04-16T20:27:11.492Z,12.27
2023-04-16T20:29:41.178Z,11.88
2023-04-16T20:32:13.406Z,12.90
2023-04-16T20:34:43.067Z,12.18
2023-04-16T20:37:12.732Z,11.55
2023-04-16T20:39:42.370Z,12.15
2023-04-16T20:42:12.291Z,11.80
2023-04-16T20:44:42.971Z,12.18
2023-04-16T20:47:17.110Z,12.35
2023-04-16T20:49:47.626Z,11.90
2023-04-16T20:52:17.689Z,11.65
2023-04-16T20:54:47.873Z,13.10
2023-04-16T20:57:17.515Z,12.38
2023-04-16T20:59:47.580Z,11.98
2023-04-16T21:02:20.411Z,11.38
2023-04-16T21:04:50.548Z,12.15
2023-04-16T21:07:20.281Z,12.07
2023-04-16T21:09:49.961Z,12.45
2023-04-16T21:12:19.670Z,12.52
2023-04-16T21:14:49.336Z,12.10
2023-04-16T21:17:22.702Z,12.35
2023-04-16T21:19:52.531Z,12.50
2023-04-16T21:22:22.273Z,12.95
2023-04-16T21:24:52.006Z,14.25
2023-04-16T21:27:21.654Z,12.32
2023-04-16T21:29:52.022Z,11.73
2023-04-16T21:32:24.358Z,12.88
2023-04-16T21:34:54.098Z,13.15
2023-04-16T21:37:23.893Z,14.23
2023-04-16T21:39:53.527Z,13.38
2023-04-16T21:42:23.233Z,13.45
2023-04-16T21:44:53.006Z,13.50
2023-04-16T21:47:25.384Z,13.02
2023-04-16T21:49:55.173Z,15.35
2023-04-16T21:52:25.318Z,14.45
2023-04-16T21:54:55.022Z,14.52
2023-04-16T21:57:24.647Z,13.90
2023-04-16T21:59:54.293Z,15.13
2023-04-16T22:02:27.452Z,13.38
2023-04-16T22:04:57.290Z,13.93
2023-04-16T22:07:27.415Z,16.35
2023-04-16T22:09:57.207Z,14.25
2023-04-16T22:12:26.900Z,15.05
2023-04-16T22:15:02.458Z,15.10
2023-04-16T22:17:36.242Z,16.08
2023-04-16T22:20:11.664Z,13.73
2023-04-16T22:22:41.862Z,13.90
2023-04-16T22:25:12.495Z,13.77
2023-04-16T22:27:42.173Z,14.35
2023-04-16T22:30:13.399Z,14.35
2023-04-16T22:32:45.630Z,13.48
2023-04-16T22:35:15.708Z,15.50
2023-04-16T22:37:45.701Z,14.38
2023-04-16T22:40:16.091Z,15.05
2023-04-16T22:42:45.736Z,13.13
2023-04-16T22:45:15.487Z,13.13
2023-04-16T22:47:47.758Z,12.63
2023-04-16T22:50:17.678Z,12.80
2023-04-16T22:52:47.305Z,13.63
2023-04-16T22:55:16.940Z,12.90
2023-04-16T22:57:47.647Z,14.75
2023-04-16T23:00:18.422Z,13.52
2023-04-16T23:02:50.756Z,13.55
2023-04-16T23:05:20.508Z,13.30
2023-04-16T23:07:50.207Z,13.15
2023-04-16T23:10:20.156Z,13.38
2023-04-16T23:12:49.786Z,12.70
2023-04-16T23:15:19.542Z,12.80
2023-04-16T23:17:52.289Z,11.98
2023-04-16T23:20:22.141Z,13.40
2023-04-16T23:22:52.935Z,12.90
2023-04-16T23:25:23.751Z,13.23
2023-04-16T23:27:53.429Z,13.27
2023-04-16T23:30:23.329Z,12.65
2023-04-16T23:32:55.580Z,12.70
2023-04-16T23:35:25.561Z,11.43
2023-04-16T23:37:55.189Z,12.00
2023-04-16T23:40:24.826Z,10.65
2023-04-16T23:42:54.531Z,11.50
2023-04-16T23:45:24.313Z,10.25
2023-04-16T23:47:56.621Z,9.20
2023-04-16T23:50:26.250Z,9.63
2023-04-16T23:52:55.890Z,10.90
2023-04-16T23:55:25.870Z,9.68
2023-04-16T23:57:55.484Z,8.77
